sensor_id;sensor_type;location;lat;lon;timestamp;P1;durP1;ratioP1;P2;durP2;ratioP2
20026;SDS011;10174;42.688;23.344;2023-02-11T00:00:05;54.25;;;20.63;;
20026;SDS011;10174;42.688;23.344;2023-02-11T00:02:32;61.50;;;21.55;;
20026;SDS011;10174;42.688;23.344;2023-02-11T00:04:58;61.35;;;22.45;;
20026;SDS011;10174;42.688;23.344;2023-02-11T00:07:27;63.38;;;21.95;;
20026;SDS011;10174;42.688;23.344;2023-02-11T00:09:53;63.72;;;21.80;;
20026;SDS011;10174;42.688;23.344;2023-02-11T00:12:18;61.97;;;22.58;;
20026;SDS011;10174;42.688;23.344;2023-02-11T00:14:44;57.22;;;20.80;;
20026;SDS011;10174;42.688;23.344;2023-02-11T00:17:09;60.33;;;20.67;;
20026;SDS011;10174;42.688;23.344;2023-02-11T00:19:35;56.03;;;21.20;;
20026;SDS011;10174;42.688;23.344;2023-02-11T00:22:00;60.95;;;20.52;;
20026;SDS011;10174;42.688;23.344;2023-02-11T00:24:28;58.38;;;19.70;;
20026;SDS011;10174;42.688;23.344;2023-02-11T00:26:54;59.95;;;20.45;;
20026;SDS011;10174;42.688;23.344;2023-02-11T00:29:19;56.78;;;19.33;;
20026;SDS011;10174;42.688;23.344;2023-02-11T00:31:45;60.17;;;20.25;;
20026;SDS011;10174;42.688;23.344;2023-02-11T00:34:10;57.80;;;21.75;;
20026;SDS011;10174;42.688;23.344;2023-02-11T00:36:36;61.38;;;21.45;;
20026;SDS011;10174;42.688;23.344;2023-02-11T00:39:01;61.78;;;20.63;;
20026;SDS011;10174;42.688;23.344;2023-02-11T00:41:27;50.88;;;19.08;;
20026;SDS011;10174;42.688;23.344;2023-02-11T00:43:53;59.60;;;20.73;;
20026;SDS011;10174;42.688;23.344;2023-02-11T00:46:18;54.17;;;19.75;;
20026;SDS011;10174;42.688;23.344;2023-02-11T00:48:44;55.47;;;19.88;;
20026;SDS011;10174;42.688;23.344;2023-02-11T00:51:10;59.90;;;21.23;;
20026;SDS011;10174;42.688;23.344;2023-02-11T00:53:36;54.47;;;20.27;;
20026;SDS011;10174;42.688;23.344;2023-02-11T00:56:02;47.28;;;17.75;;
20026;SDS011;10174;42.688;23.344;2023-02-11T00:58:27;55.10;;;20.20;;
20026;SDS011;10174;42.688;23.344;2023-02-11T01:00:53;55.83;;;21.55;;
20026;SDS011;10174;42.688;23.344;2023-02-11T01:03:19;44.92;;;17.48;;
20026;SDS011;10174;42.688;23.344;2023-02-11T01:05:44;53.75;;;18.90;;
20026;SDS011;10174;42.688;23.344;2023-02-11T01:08:10;48.58;;;19.45;;
20026;SDS011;10174;42.688;23.344;2023-02-11T01:10:35;53.63;;;20.20;;
20026;SDS011;10174;42.688;23.344;2023-02-11T01:13:01;51.20;;;19.15;;
20026;SDS011;10174;42.688;23.344;2023-02-11T01:15:26;47.05;;;18.33;;
20026;SDS011;10174;42.688;23.344;2023-02-11T01:17:51;51.72;;;19.17;;
20026;SDS011;10174;42.688;23.344;2023-02-11T01:20:21;64.75;;;20.08;;
20026;SDS011;10174;42.688;23.344;2023-02-11T01:22:49;49.88;;;18.52;;
20026;SDS011;10174;42.688;23.344;2023-02-11T01:25:14;58.70;;;20.08;;
20026;SDS011;10174;42.688;23.344;2023-02-11T01:27:40;59.72;;;20.33;;
20026;SDS011;10174;42.688;23.344;2023-02-11T01:30:06;50.38;;;18.52;;
20026;SDS011;10174;42.688;23.344;2023-02-11T01:32:33;56.05;;;19.08;;
20026;SDS011;10174;42.688;23.344;2023-02-11T01:34:58;54.45;;;19.17;;
20026;SDS011;10174;42.688;23.344;2023-02-11T01:37:24;55.80;;;20.33;;
20026;SDS011;10174;42.688;23.344;2023-02-11T01:39:50;57.08;;;20.25;;
20026;SDS011;10174;42.688;23.344;2023-02-11T01:42:16;54.25;;;19.15;;
20026;SDS011;10174;42.688;23.344;2023-02-11T01:44:44;51.58;;;21.17;;
20026;SDS011;10174;42.688;23.344;2023-02-11T01:47:13;56.65;;;20.42;;
20026;SDS011;10174;42.688;23.344;2023-02-11T01:49:40;54.38;;;20.63;;
20026;SDS011;10174;42.688;23.344;2023-02-11T01:52:16;58.45;;;20.65;;
20026;SDS011;10174;42.688;23.344;2023-02-11T01:54:51;55.17;;;19.75;;
20026;SDS011;10174;42.688;23.344;2023-02-11T01:57:39;54.35;;;20.42;;
20026;SDS011;10174;42.688;23.344;2023-02-11T02:00:09;58.40;;;21.00;;
20026;SDS011;10174;42.688;23.344;2023-02-11T02:02:39;59.25;;;21.00;;
20026;SDS011;10174;42.688;23.344;2023-02-11T02:08:15;57.33;;;19.83;;
20026;SDS011;10174;42.688;23.344;2023-02-11T02:10:43;63.95;;;21.00;;
20026;SDS011;10174;42.688;23.344;2023-02-11T02:13:10;57.30;;;20.80;;
20026;SDS011;10174;42.688;23.344;2023-02-11T02:15:37;65.90;;;22.33;;
20026;SDS011;10174;42.688;23.344;2023-02-11T02:29:13;58.92;;;21.15;;
20026;SDS011;10174;42.688;23.344;2023-02-11T02:31:53;61.85;;;20.95;;
20026;SDS011;10174;42.688;23.344;2023-02-11T02:34:32;57.08;;;20.85;;
20026;SDS011;10174;42.688;23.344;2023-02-11T02:37:12;60.40;;;21.35;;
20026;SDS011;10174;42.688;23.344;2023-02-11T02:39:42;57.40;;;20.38;;
20026;SDS011;10174;42.688;23.344;2023-02-11T02:42:11;58.22;;;21.17;;
20026;SDS011;10174;42.688;23.344;2023-02-11T02:44:38;67.75;;;20.27;;
20026;SDS011;10174;42.688;23.344;2023-02-11T02:47:03;61.10;;;20.75;;
20026;SDS011;10174;42.688;23.344;2023-02-11T02:49:29;65.28;;;21.45;;
20026;SDS011;10174;42.688;23.344;2023-02-11T02:52:15;55.08;;;19.23;;
20026;SDS011;10174;42.688;23.344;2023-02-11T02:58:02;57.78;;;19.75;;
20026;SDS011;10174;42.688;23.344;2023-02-11T03:00:40;63.88;;;20.77;;
20026;SDS011;10174;42.688;23.344;2023-02-11T03:06:25;57.15;;;20.80;;
20026;SDS011;10174;42.688;23.344;2023-02-11T03:09:07;57.97;;;21.73;;
20026;SDS011;10174;42.688;23.344;2023-02-11T03:11:55;67.55;;;21.50;;
20026;SDS011;10174;42.688;23.344;2023-02-11T03:14:21;58.33;;;20.58;;
20026;SDS011;10174;42.688;23.344;2023-02-11T03:16:51;57.75;;;21.55;;
20026;SDS011;10174;42.688;23.344;2023-02-11T03:19:21;134.80;;;40.53;;
20026;SDS011;10174;42.688;23.344;2023-02-11T03:21:52;58.70;;;22.40;;
20026;SDS011;10174;42.688;23.344;2023-02-11T03:24:20;62.15;;;22.35;;
20026;SDS011;10174;42.688;23.344;2023-02-11T03:29:36;71.18;;;22.55;;
20026;SDS011;10174;42.688;23.344;2023-02-11T03:37:26;86.57;;;27.73;;
20026;SDS011;10174;42.688;23.344;2023-02-11T03:40:04;86.10;;;29.00;;
20026;SDS011;10174;42.688;23.344;2023-02-11T03:42:39;77.35;;;26.65;;
20026;SDS011;10174;42.688;23.344;2023-02-11T03:45:09;63.20;;;23.00;;
20026;SDS011;10174;42.688;23.344;2023-02-11T03:47:39;62.17;;;22.75;;
20026;SDS011;10174;42.688;23.344;2023-02-11T03:50:10;66.68;;;22.38;;
20026;SDS011;10174;42.688;23.344;2023-02-11T03:52:39;68.72;;;22.83;;
20026;SDS011;10174;42.688;23.344;2023-02-11T03:55:06;60.75;;;22.67;;
20026;SDS011;10174;42.688;23.344;2023-02-11T03:57:35;55.78;;;20.63;;
20026;SDS011;10174;42.688;23.344;2023-02-11T04:00:03;66.35;;;23.17;;
20026;SDS011;10174;42.688;23.344;2023-02-11T04:02:30;59.78;;;22.23;;
20026;SDS011;10174;42.688;23.344;2023-02-11T04:04:58;59.20;;;20.70;;
20026;SDS011;10174;42.688;23.344;2023-02-11T04:07:24;60.05;;;21.33;;
20026;SDS011;10174;42.688;23.344;2023-02-11T04:09:50;61.50;;;21.85;;
20026;SDS011;10174;42.688;23.344;2023-02-11T04:12:16;66.65;;;22.10;;
20026;SDS011;10174;42.688;23.344;2023-02-11T04:14:42;67.97;;;22.27;;
20026;SDS011;10174;42.688;23.344;2023-02-11T04:17:07;57.15;;;22.15;;
20026;SDS011;10174;42.688;23.344;2023-02-11T04:19:33;65.25;;;23.15;;
20026;SDS011;10174;42.688;23.344;2023-02-11T04:21:58;71.90;;;23.88;;
20026;SDS011;10174;42.688;23.344;2023-02-11T04:24:24;61.90;;;23.25;;
20026;SDS011;10174;42.688;23.344;2023-02-11T04:26:49;66.90;;;24.17;;
20026;SDS011;10174;42.688;23.344;2023-02-11T04:29:15;72.97;;;22.48;;
20026;SDS011;10174;42.688;23.344;2023-02-11T04:31:40;72.50;;;26.85;;
20026;SDS011;10174;42.688;23.344;2023-02-11T04:34:05;81.72;;;27.02;;
20026;SDS011;10174;42.688;23.344;2023-02-11T04:36:31;90.03;;;29.23;;
20026;SDS011;10174;42.688;23.344;2023-02-11T04:38:56;77.22;;;31.23;;
20026;SDS011;10174;42.688;23.344;2023-02-11T04:41:21;90.95;;;31.45;;
20026;SDS011;10174;42.688;23.344;2023-02-11T04:43:47;88.20;;;31.35;;
20026;SDS011;10174;42.688;23.344;2023-02-11T04:46:12;87.38;;;30.20;;
20026;SDS011;10174;42.688;23.344;2023-02-11T04:48:37;87.35;;;30.02;;
20026;SDS011;10174;42.688;23.344;2023-02-11T04:51:03;81.40;;;29.15;;
20026;SDS011;10174;42.688;23.344;2023-02-11T04:53:29;84.28;;;30.67;;
20026;SDS011;10174;42.688;23.344;2023-02-11T04:55:56;87.28;;;29.08;;
20026;SDS011;10174;42.688;23.344;2023-02-11T04:58:21;85.57;;;29.63;;
20026;SDS011;10174;42.688;23.344;2023-02-11T05:00:47;77.28;;;28.75;;
20026;SDS011;10174;42.688;23.344;2023-02-11T05:03:12;81.57;;;29.60;;
20026;SDS011;10174;42.688;23.344;2023-02-11T05:05:38;70.15;;;26.60;;
20026;SDS011;10174;42.688;23.344;2023-02-11T05:08:07;81.28;;;27.92;;
20026;SDS011;10174;42.688;23.344;2023-02-11T05:10:33;72.03;;;25.88;;
20026;SDS011;10174;42.688;23.344;2023-02-11T05:12:58;66.68;;;25.13;;
20026;SDS011;10174;42.688;23.344;2023-02-11T05:15:24;71.30;;;25.83;;
20026;SDS011;10174;42.688;23.344;2023-02-11T05:17:50;75.70;;;26.13;;
20026;SDS011;10174;42.688;23.344;2023-02-11T05:20:15;73.88;;;25.05;;
20026;SDS011;10174;42.688;23.344;2023-02-11T05:22:41;66.15;;;24.02;;
20026;SDS011;10174;42.688;23.344;2023-02-11T05:25:06;68.10;;;23.73;;
20026;SDS011;10174;42.688;23.344;2023-02-11T05:27:32;68.43;;;23.60;;
20026;SDS011;10174;42.688;23.344;2023-02-11T05:29:57;59.72;;;22.25;;
20026;SDS011;10174;42.688;23.344;2023-02-11T05:32:23;64.35;;;22.13;;
20026;SDS011;10174;42.688;23.344;2023-02-11T05:34:48;61.08;;;23.65;;
20026;SDS011;10174;42.688;23.344;2023-02-11T05:37:13;64.30;;;23.73;;
20026;SDS011;10174;42.688;23.344;2023-02-11T05:39:39;73.07;;;24.80;;
20026;SDS011;10174;42.688;23.344;2023-02-11T05:42:04;66.68;;;23.00;;
20026;SDS011;10174;42.688;23.344;2023-02-11T05:44:30;71.63;;;24.55;;
20026;SDS011;10174;42.688;23.344;2023-02-11T05:46:55;69.78;;;23.98;;
20026;SDS011;10174;42.688;23.344;2023-02-11T05:49:20;71.85;;;23.92;;
20026;SDS011;10174;42.688;23.344;2023-02-11T05:51:46;61.72;;;21.00;;
20026;SDS011;10174;42.688;23.344;2023-02-11T05:54:12;59.85;;;22.70;;
20026;SDS011;10174;42.688;23.344;2023-02-11T05:56:37;62.80;;;20.88;;
20026;SDS011;10174;42.688;23.344;2023-02-11T05:59:03;63.40;;;20.25;;
20026;SDS011;10174;42.688;23.344;2023-02-11T06:01:29;66.28;;;21.20;;
20026;SDS011;10174;42.688;23.344;2023-02-11T06:03:54;62.60;;;21.73;;
20026;SDS011;10174;42.688;23.344;2023-02-11T06:06:19;65.32;;;23.02;;
20026;SDS011;10174;42.688;23.344;2023-02-11T06:08:45;64.45;;;23.02;;
20026;SDS011;10174;42.688;23.344;2023-02-11T06:11:12;67.22;;;23.05;;
20026;SDS011;10174;42.688;23.344;2023-02-11T06:13:39;65.22;;;23.08;;
20026;SDS011;10174;42.688;23.344;2023-02-11T06:16:04;66.60;;;23.77;;
20026;SDS011;10174;42.688;23.344;2023-02-11T06:18:29;65.18;;;23.35;;
20026;SDS011;10174;42.688;23.344;2023-02-11T06:20:57;67.45;;;24.08;;
20026;SDS011;10174;42.688;23.344;2023-02-11T06:23:23;75.60;;;23.98;;
20026;SDS011;10174;42.688;23.344;2023-02-11T06:25:49;69.38;;;23.92;;
20026;SDS011;10174;42.688;23.344;2023-02-11T06:28:14;66.80;;;24.92;;
20026;SDS011;10174;42.688;23.344;2023-02-11T06:30:40;78.57;;;26.20;;
20026;SDS011;10174;42.688;23.344;2023-02-11T06:33:05;92.80;;;25.90;;
20026;SDS011;10174;42.688;23.344;2023-02-11T06:35:30;72.82;;;26.85;;
20026;SDS011;10174;42.688;23.344;2023-02-11T06:37:57;81.18;;;28.02;;
20026;SDS011;10174;42.688;23.344;2023-02-11T06:40:23;91.22;;;25.67;;
20026;SDS011;10174;42.688;23.344;2023-02-11T06:42:48;81.43;;;26.42;;
20026;SDS011;10174;42.688;23.344;2023-02-11T06:45:14;76.20;;;27.05;;
20026;SDS011;10174;42.688;23.344;2023-02-11T06:47:39;81.05;;;25.95;;
20026;SDS011;10174;42.688;23.344;2023-02-11T06:50:05;75.40;;;27.20;;
20026;SDS011;10174;42.688;23.344;2023-02-11T06:52:33;75.05;;;26.80;;
20026;SDS011;10174;42.688;23.344;2023-02-11T06:54:58;76.60;;;27.13;;
20026;SDS011;10174;42.688;23.344;2023-02-11T06:57:24;77.75;;;28.15;;
20026;SDS011;10174;42.688;23.344;2023-02-11T06:59:49;79.00;;;28.73;;
20026;SDS011;10174;42.688;23.344;2023-02-11T07:02:15;80.82;;;28.13;;
20026;SDS011;10174;42.688;23.344;2023-02-11T07:04:41;80.40;;;27.98;;
20026;SDS011;10174;42.688;23.344;2023-02-11T07:07:06;79.82;;;27.80;;
20026;SDS011;10174;42.688;23.344;2023-02-11T07:09:32;80.78;;;28.50;;
20026;SDS011;10174;42.688;23.344;2023-02-11T07:11:58;80.63;;;29.58;;
20026;SDS011;10174;42.688;23.344;2023-02-11T07:14:23;80.22;;;28.98;;
20026;SDS011;10174;42.688;23.344;2023-02-11T07:16:49;88.53;;;30.80;;
20026;SDS011;10174;42.688;23.344;2023-02-11T07:19:14;78.35;;;27.52;;
20026;SDS011;10174;42.688;23.344;2023-02-11T07:21:39;81.55;;;28.27;;
20026;SDS011;10174;42.688;23.344;2023-02-11T07:24:05;83.32;;;28.05;;
20026;SDS011;10174;42.688;23.344;2023-02-11T07:26:32;83.50;;;30.23;;
20026;SDS011;10174;42.688;23.344;2023-02-11T07:28:57;80.07;;;28.95;;
20026;SDS011;10174;42.688;23.344;2023-02-11T07:31:23;82.72;;;30.25;;
20026;SDS011;10174;42.688;23.344;2023-02-11T07:33:51;83.68;;;30.63;;
20026;SDS011;10174;42.688;23.344;2023-02-11T07:36:19;84.53;;;29.17;;
20026;SDS011;10174;42.688;23.344;2023-02-11T07:38:45;88.22;;;29.23;;
20026;SDS011;10174;42.688;23.344;2023-02-11T07:41:12;76.75;;;28.92;;
20026;SDS011;10174;42.688;23.344;2023-02-11T07:43:40;90.57;;;30.90;;
20026;SDS011;10174;42.688;23.344;2023-02-11T07:46:07;103.55;;;32.65;;
20026;SDS011;10174;42.688;23.344;2023-02-11T07:48:38;94.32;;;32.28;;
20026;SDS011;10174;42.688;23.344;2023-02-11T07:51:07;90.32;;;29.40;;
20026;SDS011;10174;42.688;23.344;2023-02-11T07:53:35;85.10;;;31.63;;
20026;SDS011;10174;42.688;23.344;2023-02-11T07:56:01;87.25;;;30.02;;
20026;SDS011;10174;42.688;23.344;2023-02-11T07:58:30;88.88;;;30.38;;
20026;SDS011;10174;42.688;23.344;2023-02-11T08:01:03;86.35;;;31.92;;
20026;SDS011;10174;42.688;23.344;2023-02-11T08:03:30;74.65;;;27.60;;
20026;SDS011;10174;42.688;23.344;2023-02-11T08:05:57;99.50;;;30.48;;
20026;SDS011;10174;42.688;23.344;2023-02-11T08:08:24;81.53;;;29.77;;
20026;SDS011;10174;42.688;23.344;2023-02-11T08:10:51;86.63;;;31.77;;
20026;SDS011;10174;42.688;23.344;2023-02-11T08:13:16;88.43;;;31.55;;
20026;SDS011;10174;42.688;23.344;2023-02-11T08:15:42;88.10;;;30.10;;
20026;SDS011;10174;42.688;23.344;2023-02-11T08:18:07;74.90;;;27.10;;
20026;SDS011;10174;42.688;23.344;2023-02-11T08:20:32;105.25;;;33.10;;
20026;SDS011;10174;42.688;23.344;2023-02-11T08:22:58;85.75;;;31.02;;
20026;SDS011;10174;42.688;23.344;2023-02-11T08:25:23;88.18;;;31.23;;
20026;SDS011;10174;42.688;23.344;2023-02-11T08:27:49;95.78;;;32.45;;
20026;SDS011;10174;42.688;23.344;2023-02-11T08:30:14;99.05;;;33.25;;
20026;SDS011;10174;42.688;23.344;2023-02-11T08:32:39;84.90;;;32.17;;
20026;SDS011;10174;42.688;23.344;2023-02-11T08:35:05;92.78;;;31.05;;
20026;SDS011;10174;42.688;23.344;2023-02-11T08:37:36;83.30;;;30.77;;
20026;SDS011;10174;42.688;23.344;2023-02-11T08:40:02;85.55;;;30.80;;
20026;SDS011;10174;42.688;23.344;2023-02-11T08:42:28;95.90;;;33.95;;
20026;SDS011;10174;42.688;23.344;2023-02-11T08:44:53;94.43;;;33.22;;
20026;SDS011;10174;42.688;23.344;2023-02-11T08:47:19;79.85;;;28.65;;
20026;SDS011;10174;42.688;23.344;2023-02-11T08:49:44;84.70;;;28.75;;
20026;SDS011;10174;42.688;23.344;2023-02-11T08:52:09;85.65;;;30.58;;
20026;SDS011;10174;42.688;23.344;2023-02-11T08:54:35;88.63;;;32.08;;
20026;SDS011;10174;42.688;23.344;2023-02-11T08:57:01;87.80;;;31.25;;
20026;SDS011;10174;42.688;23.344;2023-02-11T08:59:27;83.95;;;32.20;;
20026;SDS011;10174;42.688;23.344;2023-02-11T09:01:52;94.05;;;33.50;;
20026;SDS011;10174;42.688;23.344;2023-02-11T09:04:18;82.68;;;29.90;;
20026;SDS011;10174;42.688;23.344;2023-02-11T09:06:43;86.88;;;32.67;;
20026;SDS011;10174;42.688;23.344;2023-02-11T09:09:10;80.80;;;30.92;;
20026;SDS011;10174;42.688;23.344;2023-02-11T09:11:38;79.35;;;29.67;;
20026;SDS011;10174;42.688;23.344;2023-02-11T09:14:04;85.38;;;31.08;;
20026;SDS011;10174;42.688;23.344;2023-02-11T09:16:32;82.00;;;29.50;;
20026;SDS011;10174;42.688;23.344;2023-02-11T09:19:00;74.85;;;29.63;;
20026;SDS011;10174;42.688;23.344;2023-02-11T09:21:26;87.55;;;30.13;;
20026;SDS011;10174;42.688;23.344;2023-02-11T09:23:52;90.95;;;31.85;;
20026;SDS011;10174;42.688;23.344;2023-02-11T09:26:19;78.97;;;29.17;;
20026;SDS011;10174;42.688;23.344;2023-02-11T09:28:46;84.15;;;29.42;;
20026;SDS011;10174;42.688;23.344;2023-02-11T09:31:14;80.50;;;28.23;;
20026;SDS011;10174;42.688;23.344;2023-02-11T09:33:42;73.10;;;28.55;;
20026;SDS011;10174;42.688;23.344;2023-02-11T09:36:12;81.68;;;29.60;;
20026;SDS011;10174;42.688;23.344;2023-02-11T09:38:39;68.18;;;26.73;;
20026;SDS011;10174;42.688;23.344;2023-02-11T09:41:05;67.65;;;26.30;;
20026;SDS011;10174;42.688;23.344;2023-02-11T09:43:57;64.18;;;22.95;;
20026;SDS011;10174;42.688;23.344;2023-02-11T09:46:28;69.05;;;24.83;;
20026;SDS011;10174;42.688;23.344;2023-02-11T09:48:56;63.83;;;23.05;;
20026;SDS011;10174;42.688;23.344;2023-02-11T09:53:55;64.93;;;25.10;;
20026;SDS011;10174;42.688;23.344;2023-02-11T09:56:24;68.65;;;26.73;;
20026;SDS011;10174;42.688;23.344;2023-02-11T09:58:52;60.55;;;21.23;;
20026;SDS011;10174;42.688;23.344;2023-02-11T10:06:43;59.58;;;21.40;;
20026;SDS011;10174;42.688;23.344;2023-02-11T10:09:27;52.67;;;19.70;;
20026;SDS011;10174;42.688;23.344;2023-02-11T10:12:16;55.60;;;21.50;;
20026;SDS011;10174;42.688;23.344;2023-02-11T10:21:16;45.70;;;18.42;;
20026;SDS011;10174;42.688;23.344;2023-02-11T10:23:35;50.35;;;18.83;;
20026;SDS011;10174;42.688;23.344;2023-02-11T10:26:08;52.90;;;21.50;;
20026;SDS011;10174;42.688;23.344;2023-02-11T10:28:37;54.22;;;21.40;;
20026;SDS011;10174;42.688;23.344;2023-02-11T10:31:06;43.63;;;20.02;;
20026;SDS011;10174;42.688;23.344;2023-02-11T10:36:10;49.97;;;20.85;;
20026;SDS011;10174;42.688;23.344;2023-02-11T10:38:37;50.78;;;20.20;;
20026;SDS011;10174;42.688;23.344;2023-02-11T10:41:03;39.63;;;19.55;;
20026;SDS011;10174;42.688;23.344;2023-02-11T10:43:29;45.30;;;19.88;;
20026;SDS011;10174;42.688;23.344;2023-02-11T10:45:56;40.67;;;19.60;;
20026;SDS011;10174;42.688;23.344;2023-02-11T10:48:38;43.65;;;19.77;;
20026;SDS011;10174;42.688;23.344;2023-02-11T10:53:37;42.58;;;18.65;;
20026;SDS011;10174;42.688;23.344;2023-02-11T10:56:03;37.75;;;18.15;;
20026;SDS011;10174;42.688;23.344;2023-02-11T10:58:36;48.47;;;20.60;;
20026;SDS011;10174;42.688;23.344;2023-02-11T11:01:06;40.65;;;17.92;;
20026;SDS011;10174;42.688;23.344;2023-02-11T11:03:33;44.67;;;19.13;;
20026;SDS011;10174;42.688;23.344;2023-02-11T11:06:04;40.97;;;17.30;;
20026;SDS011;10174;42.688;23.344;2023-02-11T11:11:04;40.65;;;18.60;;
20026;SDS011;10174;42.688;23.344;2023-02-11T11:13:33;34.17;;;16.85;;
20026;SDS011;10174;42.688;23.344;2023-02-11T11:18:31;34.88;;;16.05;;
20026;SDS011;10174;42.688;23.344;2023-02-11T11:21:00;44.50;;;18.02;;
20026;SDS011;10174;42.688;23.344;2023-02-11T11:23:29;44.38;;;16.63;;
20026;SDS011;10174;42.688;23.344;2023-02-11T11:26:00;32.58;;;16.45;;
20026;SDS011;10174;42.688;23.344;2023-02-11T11:31:02;36.42;;;17.27;;
20026;SDS011;10174;42.688;23.344;2023-02-11T11:33:30;32.83;;;16.05;;
20026;SDS011;10174;42.688;23.344;2023-02-11T11:38:30;31.58;;;15.00;;
20026;SDS011;10174;42.688;23.344;2023-02-11T11:44:02;34.08;;;14.00;;
20026;SDS011;10174;42.688;23.344;2023-02-11T11:46:43;33.55;;;14.70;;
20026;SDS011;10174;42.688;23.344;2023-02-11T11:49:16;34.00;;;14.82;;
20026;SDS011;10174;42.688;23.344;2023-02-11T11:54:44;38.30;;;16.60;;
20026;SDS011;10174;42.688;23.344;2023-02-11T11:57:15;36.33;;;15.48;;
20026;SDS011;10174;42.688;23.344;2023-02-11T11:59:46;31.70;;;15.57;;
20026;SDS011;10174;42.688;23.344;2023-02-11T12:04:54;38.60;;;15.48;;
20026;SDS011;10174;42.688;23.344;2023-02-11T12:15:41;33.22;;;14.82;;
20026;SDS011;10174;42.688;23.344;2023-02-11T12:18:29;31.20;;;13.02;;
20026;SDS011;10174;42.688;23.344;2023-02-11T12:23:50;29.70;;;12.50;;
20026;SDS011;10174;42.688;23.344;2023-02-11T12:26:34;22.83;;;11.80;;
20026;SDS011;10174;42.688;23.344;2023-02-11T12:29:26;25.60;;;12.35;;
20026;SDS011;10174;42.688;23.344;2023-02-11T12:40:24;41.55;;;13.82;;
20026;SDS011;10174;42.688;23.344;2023-02-11T12:43:04;24.67;;;11.15;;
20026;SDS011;10174;42.688;23.344;2023-02-11T13:04:56;30.02;;;15.40;;
20026;SDS011;10174;42.688;23.344;2023-02-11T13:07:31;32.53;;;14.73;;
20026;SDS011;10174;42.688;23.344;2023-02-11T13:10:44;35.03;;;15.40;;
20026;SDS011;10174;42.688;23.344;2023-02-11T13:12:53;31.75;;;14.55;;
20026;SDS011;10174;42.688;23.344;2023-02-11T13:15:40;32.08;;;13.90;;
20026;SDS011;10174;42.688;23.344;2023-02-11T13:20:55;31.90;;;13.73;;
20026;SDS011;10174;42.688;23.344;2023-02-11T13:26:16;27.40;;;12.43;;
20026;SDS011;10174;42.688;23.344;2023-02-11T13:28:59;34.65;;;13.55;;
20026;SDS011;10174;42.688;23.344;2023-02-11T13:31:54;29.70;;;12.80;;
20026;SDS011;10174;42.688;23.344;2023-02-11T13:37:33;39.85;;;13.95;;
20026;SDS011;10174;42.688;23.344;2023-02-11T13:40:03;35.13;;;13.77;;
20026;SDS011;10174;42.688;23.344;2023-02-11T13:42:32;37.03;;;13.98;;
20026;SDS011;10174;42.688;23.344;2023-02-11T13:45:15;31.05;;;13.80;;
20026;SDS011;10174;42.688;23.344;2023-02-11T13:47:42;29.70;;;12.50;;
20026;SDS011;10174;42.688;23.344;2023-02-11T13:50:19;31.02;;;14.63;;
20026;SDS011;10174;42.688;23.344;2023-02-11T13:52:55;36.40;;;12.85;;
20026;SDS011;10174;42.688;23.344;2023-02-11T13:55:23;24.23;;;11.43;;
20026;SDS011;10174;42.688;23.344;2023-02-11T14:19:34;33.92;;;12.20;;
20026;SDS011;10174;42.688;23.344;2023-02-11T14:24:44;28.25;;;12.05;;
20026;SDS011;10174;42.688;23.344;2023-02-11T14:30:03;26.73;;;12.23;;
20026;SDS011;10174;42.688;23.344;2023-02-11T14:35:31;36.35;;;12.75;;
20026;SDS011;10174;42.688;23.344;2023-02-11T14:38:33;29.80;;;12.65;;
20026;SDS011;10174;42.688;23.344;2023-02-11T14:41:05;28.90;;;13.50;;
20026;SDS011;10174;42.688;23.344;2023-02-11T14:43:39;32.72;;;14.23;;
20026;SDS011;10174;42.688;23.344;2023-02-11T14:46:09;35.17;;;14.48;;
20026;SDS011;10174;42.688;23.344;2023-02-11T14:48:36;32.50;;;14.30;;
20026;SDS011;10174;42.688;23.344;2023-02-11T14:53:39;33.97;;;14.25;;
20026;SDS011;10174;42.688;23.344;2023-02-11T14:56:27;32.08;;;13.57;;
20026;SDS011;10174;42.688;23.344;2023-02-11T14:58:58;35.60;;;13.38;;
20026;SDS011;10174;42.688;23.344;2023-02-11T15:01:25;32.08;;;12.98;;
20026;SDS011;10174;42.688;23.344;2023-02-11T15:03:52;30.30;;;13.35;;
20026;SDS011;10174;42.688;23.344;2023-02-11T15:06:35;33.30;;;14.07;;
20026;SDS011;10174;42.688;23.344;2023-02-11T15:09:04;30.77;;;13.88;;
20026;SDS011;10174;42.688;23.344;2023-02-11T15:11:38;33.42;;;13.32;;
20026;SDS011;10174;42.688;23.344;2023-02-11T15:14:07;32.97;;;14.15;;
20026;SDS011;10174;42.688;23.344;2023-02-11T15:16:39;30.17;;;13.93;;
20026;SDS011;10174;42.688;23.344;2023-02-11T15:19:10;30.85;;;14.35;;
20026;SDS011;10174;42.688;23.344;2023-02-11T15:21:43;36.33;;;14.60;;
20026;SDS011;10174;42.688;23.344;2023-02-11T15:24:29;34.67;;;14.25;;
20026;SDS011;10174;42.688;23.344;2023-02-11T15:27:10;36.90;;;15.00;;
20026;SDS011;10174;42.688;23.344;2023-02-11T15:29:43;38.65;;;14.98;;
20026;SDS011;10174;42.688;23.344;2023-02-11T15:32:14;38.00;;;15.38;;
20026;SDS011;10174;42.688;23.344;2023-02-11T15:34:46;37.08;;;16.17;;
20026;SDS011;10174;42.688;23.344;2023-02-11T15:37:13;37.30;;;14.93;;
20026;SDS011;10174;42.688;23.344;2023-02-11T15:39:44;32.83;;;14.63;;
20026;SDS011;10174;42.688;23.344;2023-02-11T15:47:38;41.05;;;15.90;;
20026;SDS011;10174;42.688;23.344;2023-02-11T15:50:05;42.67;;;17.40;;
20026;SDS011;10174;42.688;23.344;2023-02-11T15:52:43;35.80;;;16.30;;
20026;SDS011;10174;42.688;23.344;2023-02-11T15:55:11;50.97;;;18.60;;
20026;SDS011;10174;42.688;23.344;2023-02-11T15:57:41;38.92;;;16.52;;
20026;SDS011;10174;42.688;23.344;2023-02-11T16:00:14;52.50;;;18.60;;
20026;SDS011;10174;42.688;23.344;2023-02-11T16:02:45;46.45;;;16.83;;
20026;SDS011;10174;42.688;23.344;2023-02-11T16:07:55;42.60;;;17.55;;
20026;SDS011;10174;42.688;23.344;2023-02-11T16:13:00;51.15;;;21.00;;
20026;SDS011;10174;42.688;23.344;2023-02-11T16:15:53;52.72;;;21.25;;
20026;SDS011;10174;42.688;23.344;2023-02-11T16:18:43;53.35;;;21.80;;
20026;SDS011;10174;42.688;23.344;2023-02-11T16:21:28;55.78;;;23.23;;
20026;SDS011;10174;42.688;23.344;2023-02-11T16:24:03;67.05;;;26.23;;
20026;SDS011;10174;42.688;23.344;2023-02-11T16:26:37;61.33;;;23.10;;
20026;SDS011;10174;42.688;23.344;2023-02-11T16:31:41;55.05;;;22.00;;
20026;SDS011;10174;42.688;23.344;2023-02-11T16:34:26;52.17;;;21.38;;
20026;SDS011;10174;42.688;23.344;2023-02-11T16:36:52;62.05;;;23.83;;
20026;SDS011;10174;42.688;23.344;2023-02-11T16:39:18;57.88;;;23.50;;
20026;SDS011;10174;42.688;23.344;2023-02-11T16:41:47;62.67;;;23.38;;
20026;SDS011;10174;42.688;23.344;2023-02-11T16:44:14;56.95;;;23.55;;
20026;SDS011;10174;42.688;23.344;2023-02-11T16:46:41;60.08;;;24.77;;
20026;SDS011;10174;42.688;23.344;2023-02-11T16:49:25;57.95;;;23.42;;
20026;SDS011;10174;42.688;23.344;2023-02-11T16:51:54;61.53;;;22.77;;
20026;SDS011;10174;42.688;23.344;2023-02-11T16:54:25;58.78;;;23.25;;
20026;SDS011;10174;42.688;23.344;2023-02-11T16:56:52;70.28;;;24.85;;
20026;SDS011;10174;42.688;23.344;2023-02-11T16:59:18;69.05;;;25.83;;